Time;durP1;ratioP1;P1;durP2;ratioP2;P2;SDS_P1;SDS_P2;PMS_P1;PMS_P2;Temp;Humidity;BMP_temperature;BMP_pressure;BME280_temperature;BME280_humidity;BME280_pressure;Samples;Min_cycle;Max_cycle;Signal;HPM_P1;HPM_P2
2021/10/21 00:00:26;;;;;;;4.18;2.90;;;17.60;81.40;;;;;;5015130;28;20094;-68
2021/10/21 00:02:52;;;;;;;3.90;2.92;;;17.60;81.30;;;;;;5012574;28;20034;-68
2021/10/21 00:05:18;;;;;;;3.33;2.90;;;17.70;81.60;;;;;;5013966;28;20041;-68
2021/10/21 00:07:44;;;;;;;5.25;3.30;;;17.70;81.40;;;;;;5013988;28;20045;-68
2021/10/21 00:10:10;;;;;;;2.92;2.60;;;17.70;81.00;;;;;;5012297;28;20040;-68
2021/10/21 00:12:37;;;;;;;4.78;3.00;;;17.70;81.10;;;;;;5013511;28;20379;-68
2021/10/21 00:15:05;;;;;;;3.58;2.60;;;17.80;81.00;;;;;;5012871;28;20521;-68
2021/10/21 00:17:30;;;;;;;3.25;2.90;;;17.90;80.60;;;;;;5001765;28;20132;-68
2021/10/21 00:19:57;;;;;;;4.57;2.65;;;17.90;80.40;;;;;;5014897;28;20494;-68
2021/10/21 00:22:22;;;;;;;5.85;2.90;;;17.90;80.10;;;;;;5012090;28;20033;-68
2021/10/21 00:24:48;;;;;;;3.28;2.40;;;17.90;80.10;;;;;;5014983;28;20053;-68
2021/10/21 00:27:14;;;;;;;3.15;2.80;;;18.00;79.70;;;;;;5011984;28;20036;-68
2021/10/21 00:29:40;;;;;;;3.90;3.00;;;18.00;80.10;;;;;;5012480;28;20041;-68
2021/10/21 00:32:06;;;;;;;3.55;2.63;;;18.00;80.00;;;;;;5011648;28;20126;-68
2021/10/21 00:34:31;;;;;;;3.45;2.45;;;17.90;80.10;;;;;;5012680;28;20033;-68
2021/10/21 00:36:57;;;;;;;6.95;2.83;;;17.90;80.30;;;;;;5013399;28;20815;-68
2021/10/21 00:39:22;;;;;;;5.25;2.67;;;17.90;80.70;;;;;;5011374;28;20043;-68
2021/10/21 00:41:48;;;;;;;5.38;3.13;;;17.90;80.80;;;;;;5011109;28;20044;-68
2021/10/21 00:44:16;;;;;;;2.92;2.63;;;17.90;80.50;;;;;;5011511;28;20044;-68
2021/10/21 00:46:42;;;;;;;3.65;2.88;;;17.90;80.10;;;;;;5021991;28;20113;-68
2021/10/21 00:49:08;;;;;;;3.33;2.72;;;17.90;80.10;;;;;;5016122;28;20026;-68
2021/10/21 00:51:36;;;;;;;3.40;2.67;;;18.00;80.00;;;;;;5015366;28;20041;-68
2021/10/21 00:54:04;;;;;;;4.63;3.30;;;18.00;79.90;;;;;;5011419;28;20453;-68
2021/10/21 00:56:30;;;;;;;3.85;2.97;;;18.00;79.80;;;;;;5014006;28;20103;-68
2021/10/21 00:58:56;;;;;;;4.68;2.70;;;18.00;79.90;;;;;;5010251;28;20061;-68
2021/10/21 01:01:22;;;;;;;3.42;2.50;;;18.00;80.10;;;;;;5012308;28;20116;-68
2021/10/21 01:03:50;;;;;;;3.20;2.90;;;18.00;80.00;;;;;;5011776;28;20030;-68
2021/10/21 01:06:18;;;;;;;3.63;2.80;;;18.00;79.90;;;;;;5010575;28;20156;-68
2021/10/21 01:08:45;;;;;;;4.97;3.30;;;18.00;80.00;;;;;;5011175;28;20044;-68
2021/10/21 01:11:13;;;;;;;4.70;2.50;;;18.00;79.90;;;;;;5011105;28;20038;-68
2021/10/21 01:13:39;;;;;;;3.13;2.78;;;18.00;79.80;;;;;;5011526;28;20609;-68
2021/10/21 01:16:11;;;;;;;4.03;3.03;;;18.00;79.70;;;;;;5013049;28;20057;-68
2021/10/21 01:18:39;;;;;;;4.28;3.15;;;18.00;79.80;;;;;;5014113;28;20041;-68
2021/10/21 01:21:05;;;;;;;3.65;2.83;;;18.00;79.60;;;;;;5016944;28;20034;-68
2021/10/21 01:23:32;;;;;;;4.72;3.00;;;18.10;79.70;;;;;;5014088;28;20037;-68
2021/10/21 01:25:58;;;;;;;3.50;3.20;;;18.00;80.00;;;;;;5014593;28;20083;-68
2021/10/21 01:28:26;;;;;;;5.13;2.92;;;18.00;80.00;;;;;;5012196;28;20034;-68
2021/10/21 01:30:52;;;;;;;4.05;2.92;;;17.90;80.20;;;;;;5010701;28;20096;-68
2021/10/21 01:33:18;;;;;;;4.65;3.13;;;17.80;80.60;;;;;;5009631;28;20041;-68
2021/10/21 01:35:44;;;;;;;3.05;2.75;;;17.80;80.70;;;;;;5010403;28;20076;-68
2021/10/21 01:38:09;;;;;;;6.68;3.10;;;17.80;80.60;;;;;;5010110;28;20037;-68
2021/10/21 01:40:35;;;;;;;4.00;2.78;;;17.70;80.80;;;;;;5010009;28;20047;-68
2021/10/21 01:43:03;;;;;;;3.58;2.90;;;17.80;81.00;;;;;;5011439;28;20091;-68
2021/10/21 01:45:31;;;;;;;3.50;2.78;;;17.70;81.00;;;;;;5012069;28;20045;-68
2021/10/21 01:47:58;;;;;;;3.53;2.83;;;17.70;81.00;;;;;;5010389;28;20065;-68
2021/10/21 01:50:24;;;;;;;2.63;2.22;;;17.70;81.10;;;;;;5013635;28;20559;-68
2021/10/21 01:52:51;;;;;;;3.78;2.88;;;17.70;81.00;;;;;;5012993;28;20704;-68
2021/10/21 01:55:18;;;;;;;4.60;2.63;;;17.70;80.90;;;;;;5012943;28;20790;-68
2021/10/21 01:57:44;;;;;;;4.68;2.58;;;17.70;80.80;;;;;;5007940;28;20056;-68
2021/10/21 02:00:13;;;;;;;3.03;2.38;;;17.80;80.90;;;;;;5009220;28;20025;-68
2021/10/21 02:02:39;;;;;;;3.47;2.30;;;17.80;80.30;;;;;;5009741;28;20091;-68
2021/10/21 02:05:05;;;;;;;3.55;2.50;;;17.80;80.10;;;;;;5010020;28;20041;-68
2021/10/21 02:07:32;;;;;;;4.43;2.60;;;17.90;80.00;;;;;;5009891;28;20688;-68
2021/10/21 02:09:58;;;;;;;2.65;2.28;;;17.90;79.80;;;;;;5010264;28;20147;-68
2021/10/21 02:12:24;;;;;;;4.68;2.15;;;17.90;79.40;;;;;;5010252;28;20410;-68
2021/10/21 02:14:49;;;;;;;2.42;1.80;;;17.90;79.80;;;;;;5011579;28;20108;-68
2021/10/21 02:17:15;;;;;;;4.90;2.03;;;17.80;79.60;;;;;;5012753;28;20425;-68
2021/10/21 02:19:41;;;;;;;2.08;1.88;;;17.80;79.80;;;;;;5011645;28;20037;-68
2021/10/21 02:22:07;;;;;;;2.42;2.00;;;17.80;79.70;;;;;;5010022;28;20925;-68
2021/10/21 02:24:33;;;;;;;4.05;1.70;;;17.80;79.30;;;;;;5006117;28;20451;-68
2021/10/21 02:26:59;;;;;;;3.75;1.88;;;17.80;79.20;;;;;;5012629;28;20033;-68
2021/10/21 02:29:25;;;;;;;2.30;1.80;;;17.70;79.50;;;;;;5009203;28;20047;-68
2021/10/21 02:31:50;;;;;;;2.17;1.95;;;17.70;79.60;;;;;;5011342;28;20037;-68
2021/10/21 02:34:16;;;;;;;2.50;1.98;;;17.80;79.50;;;;;;5007404;28;20033;-68
2021/10/21 02:36:42;;;;;;;2.88;1.90;;;17.80;79.40;;;;;;5011838;28;20026;-67
2021/10/21 02:39:08;;;;;;;2.08;1.70;;;17.80;78.80;;;;;;5010594;28;20045;-67
2021/10/21 02:41:33;;;;;;;3.55;1.73;;;17.80;78.80;;;;;;5012028;28;20064;-68
2021/10/21 02:43:59;;;;;;;2.00;1.75;;;17.80;78.80;;;;;;5008816;28;20025;-66
2021/10/21 02:46:25;;;;;;;1.67;1.58;;;17.90;78.80;;;;;;5009511;28;20061;-67
2021/10/21 02:48:51;;;;;;;3.33;1.73;;;17.90;78.40;;;;;;5007682;28;20044;-67
2021/10/21 02:51:16;;;;;;;1.85;1.70;;;17.90;78.20;;;;;;5008152;28;20564;-67
2021/10/21 02:53:42;;;;;;;1.63;1.30;;;17.80;78.40;;;;;;5010216;28;20823;-67
2021/10/21 02:56:08;;;;;;;1.90;1.35;;;17.80;78.10;;;;;;5011900;28;20496;-68
2021/10/21 02:58:33;;;;;;;1.60;1.42;;;17.80;78.20;;;;;;5011122;28;20033;-67
2021/10/21 03:00:59;;;;;;;1.25;1.15;;;17.80;78.40;;;;;;5015576;28;20110;-67
2021/10/21 03:03:25;;;;;;;1.63;1.33;;;17.80;78.60;;;;;;5011935;28;20026;-67
2021/10/21 03:05:50;;;;;;;3.60;1.67;;;17.80;78.80;;;;;;5015445;28;20030;-66
2021/10/21 03:08:16;;;;;;;1.45;1.35;;;17.70;79.00;;;;;;5009719;28;20165;-68
2021/10/21 03:10:42;;;;;;;1.85;1.33;;;17.70;78.90;;;;;;5012120;28;20240;-68
2021/10/21 03:13:07;;;;;;;1.50;1.40;;;17.80;78.80;;;;;;5015733;28;20033;-68
2021/10/21 03:15:33;;;;;;;2.45;1.30;;;17.80;79.10;;;;;;5014030;28;20485;-67
2021/10/21 03:17:59;;;;;;;2.47;1.30;;;17.80;78.90;;;;;;5012274;28;20073;-68
2021/10/21 03:20:25;;;;;;;2.55;1.40;;;17.80;79.00;;;;;;5014556;28;20117;-68
2021/10/21 03:22:51;;;;;;;1.33;1.20;;;17.80;79.20;;;;;;5011774;28;20136;-68
2021/10/21 03:25:17;;;;;;;3.75;1.50;;;17.80;79.10;;;;;;5010644;28;20124;-68
2021/10/21 03:27:43;;;;;;;1.63;1.40;;;17.80;79.10;;;;;;5010562;28;20052;-67
2021/10/21 03:30:10;;;;;;;2.33;1.30;;;17.80;79.00;;;;;;5011317;28;20060;-68
2021/10/21 03:32:37;;;;;;;1.52;1.40;;;17.80;78.90;;;;;;5012541;28;20044;-67
2021/10/21 03:35:03;;;;;;;1.75;1.58;;;17.90;78.60;;;;;;5011237;28;20140;-68
2021/10/21 03:37:29;;;;;;;1.92;1.30;;;17.80;79.20;;;;;;5010904;28;20057;-68
2021/10/21 03:39:55;;;;;;;3.25;1.40;;;17.70;79.10;;;;;;5010885;28;20557;-67
2021/10/21 03:42:23;;;;;;;1.90;1.42;;;17.70;79.10;;;;;;5013739;28;20856;-67
2021/10/21 03:44:49;;;;;;;4.30;1.30;;;17.60;78.60;;;;;;5012913;28;20039;-68
2021/10/21 03:47:16;;;;;;;2.40;1.20;;;17.60;77.70;;;;;;5013055;28;20103;-68
2021/10/21 03:49:42;;;;;;;1.30;1.20;;;17.60;77.30;;;;;;5013716;28;20115;-68
2021/10/21 03:52:08;;;;;;;1.20;1.10;;;17.60;77.10;;;;;;5011261;28;20136;-68
2021/10/21 03:54:34;;;;;;;2.55;1.20;;;17.60;76.60;;;;;;5011214;28;20116;-68
2021/10/21 03:56:59;;;;;;;1.23;1.00;;;17.50;76.60;;;;;;5012319;28;20048;-68
2021/10/21 03:59:26;;;;;;;2.53;1.00;;;17.50;75.10;;;;;;5014373;28;20037;-68
2021/10/21 04:01:54;;;;;;;1.15;1.05;;;17.50;73.90;;;;;;5019374;28;20926;-68
2021/10/21 04:04:21;;;;;;;2.72;0.82;;;17.50;73.40;;;;;;5012106;28;20057;-68
2021/10/21 04:06:47;;;;;;;4.80;0.70;;;17.60;73.60;;;;;;5011052;28;20041;-68
2021/10/21 04:09:13;;;;;;;1.52;0.73;;;17.50;75.50;;;;;;5009420;28;20164;-68
2021/10/21 04:11:38;;;;;;;1.50;0.68;;;17.10;77.60;;;;;;5017471;28;20073;-67
2021/10/21 04:14:05;;;;;;;2.00;0.80;;;16.70;78.00;;;;;;5012075;28;20128;-67
2021/10/21 04:16:30;;;;;;;2.30;0.93;;;16.50;79.60;;;;;;5010702;28;20606;-67
2021/10/21 04:18:56;;;;;;;1.02;0.73;;;16.40;79.60;;;;;;5010558;28;20136;-67
2021/10/21 04:21:22;;;;;;;0.70;0.70;;;16.40;79.40;;;;;;5011777;28;20068;-67
2021/10/21 04:23:47;;;;;;;2.58;0.60;;;16.30;79.00;;;;;;5007810;28;20124;-67
2021/10/21 04:26:13;;;;;;;1.23;0.55;;;16.40;78.70;;;;;;5015148;28;20068;-68
2021/10/21 04:28:39;;;;;;;7.05;0.75;;;16.30;79.30;;;;;;5009462;28;20095;-68
2021/10/21 04:31:05;;;;;;;1.75;0.50;;;16.40;79.20;;;;;;5007521;28;20042;-68
2021/10/21 04:33:31;;;;;;;1.98;0.73;;;16.40;80.10;;;;;;5011413;28;20042;-68
2021/10/21 04:35:56;;;;;;;0.60;0.60;;;16.40;79.60;;;;;;5008849;28;20064;-68
2021/10/21 04:38:22;;;;;;;1.58;0.60;;;16.40;79.80;;;;;;5009296;28;20402;-67
2021/10/21 04:40:48;;;;;;;0.40;0.40;;;16.40;80.00;;;;;;5012828;28;20053;-68
2021/10/21 04:43:14;;;;;;;0.45;0.45;;;16.50;79.60;;;;;;5013277;28;20497;-67
2021/10/21 04:45:39;;;;;;;1.38;0.70;;;16.50;79.90;;;;;;5011074;28;20037;-68
2021/10/21 04:48:05;;;;;;;1.27;0.70;;;16.50;80.00;;;;;;5019799;28;20064;-67
2021/10/21 04:50:31;;;;;;;0.93;0.77;;;16.50;80.50;;;;;;5017887;28;20781;-67
2021/10/21 04:52:56;;;;;;;2.97;0.82;;;16.50;80.00;;;;;;5018825;28;20030;-67
2021/10/21 04:55:23;;;;;;;1.65;0.70;;;16.50;80.20;;;;;;5017020;28;20509;-68
2021/10/21 04:57:49;;;;;;;0.65;0.63;;;16.50;80.40;;;;;;5010312;28;20059;-67
2021/10/21 05:00:16;;;;;;;1.05;0.70;;;16.60;79.60;;;;;;5023173;28;20021;-67
2021/10/21 05:02:42;;;;;;;10.35;1.00;;;16.60;79.60;;;;;;5026471;28;20038;-68
2021/10/21 05:05:08;;;;;;;1.40;0.88;;;16.60;79.20;;;;;;5022746;28;20042;-67
2021/10/21 05:07:34;;;;;;;1.13;0.75;;;16.70;79.40;;;;;;5023957;28;21435;-67
2021/10/21 05:10:00;;;;;;;0.80;0.70;;;16.60;79.80;;;;;;5015042;28;20745;-67
2021/10/21 05:12:26;;;;;;;1.10;0.68;;;16.50;80.30;;;;;;5012117;28;20075;-67
2021/10/21 05:14:52;;;;;;;2.40;0.90;;;16.50;80.80;;;;;;5006668;28;20045;-67
2021/10/21 05:17:19;;;;;;;3.75;0.82;;;16.50;80.50;;;;;;5008939;28;20034;-67
2021/10/21 05:19:45;;;;;;;1.27;0.70;;;16.50;81.00;;;;;;5015099;28;20029;-67
2021/10/21 05:22:10;;;;;;;3.40;0.93;;;16.50;80.40;;;;;;5010148;28;20037;-67
2021/10/21 05:24:36;;;;;;;1.00;0.65;;;16.50;80.10;;;;;;5014529;28;20872;-67
2021/10/21 05:27:02;;;;;;;0.70;0.70;;;16.40;80.20;;;;;;5009881;28;20080;-67
2021/10/21 05:29:29;;;;;;;2.95;1.10;;;16.50;80.90;;;;;;5012432;28;20042;-67
2021/10/21 05:31:55;;;;;;;2.15;0.90;;;16.50;79.80;;;;;;5013682;28;20045;-67
2021/10/21 05:34:21;;;;;;;2.13;0.73;;;16.50;79.70;;;;;;5021656;28;20022;-68
2021/10/21 05:36:48;;;;;;;2.08;0.85;;;16.70;79.20;;;;;;5016888;28;20036;-67
2021/10/21 05:39:14;;;;;;;5.55;0.75;;;16.60;79.00;;;;;;5025936;28;20037;-67
2021/10/21 05:41:40;;;;;;;1.05;0.80;;;16.70;79.10;;;;;;5022366;28;20038;-68
2021/10/21 05:44:06;;;;;;;1.50;0.80;;;16.80;78.60;;;;;;5019444;28;20409;-68
2021/10/21 05:46:31;;;;;;;0.65;0.63;;;16.80;77.90;;;;;;5012939;28;20034;-68
2021/10/21 05:48:57;;;;;;;1.70;0.82;;;16.70;77.80;;;;;;5020164;28;20030;-69
2021/10/21 05:51:22;;;;;;;1.25;0.68;;;16.80;77.70;;;;;;5012559;28;20033;-69
2021/10/21 05:53:49;;;;;;;3.83;0.90;;;16.80;77.90;;;;;;5018306;28;20044;-68
2021/10/21 05:56:15;;;;;;;2.08;0.80;;;16.80;77.50;;;;;;5016957;28;20090;-67
2021/10/21 05:58:41;;;;;;;2.38;1.00;;;16.90;77.60;;;;;;5014108;28;20045;-67
2021/10/21 06:01:07;;;;;;;2.25;1.00;;;16.80;77.00;;;;;;5021631;28;20038;-67
2021/10/21 06:03:36;;;;;;;2.47;0.63;;;16.90;76.70;;;;;;5020672;28;20068;-67
2021/10/21 06:06:06;;;;;;;1.27;0.80;;;16.90;76.70;;;;;;5020779;28;20764;-67
2021/10/21 06:08:33;;;;;;;3.20;0.90;;;16.90;76.20;;;;;;5011979;28;20034;-67
2021/10/21 06:11:04;;;;;;;0.73;0.60;;;17.00;75.90;;;;;;5010466;28;20128;-67
2021/10/21 06:13:32;;;;;;;4.93;0.77;;;16.90;74.50;;;;;;5013288;28;20569;-68
2021/10/21 06:15:58;;;;;;;0.52;0.50;;;16.80;74.50;;;;;;5012385;28;20055;-67
2021/10/21 06:18:24;;;;;;;2.35;0.70;;;16.80;74.60;;;;;;5022058;28;20116;-68
2021/10/21 06:20:50;;;;;;;2.28;0.60;;;16.80;74.60;;;;;;5013757;28;20034;-68
2021/10/21 06:23:15;;;;;;;2.15;0.60;;;16.80;73.70;;;;;;5014614;28;20085;-67
2021/10/21 06:25:41;;;;;;;1.55;0.93;;;16.80;73.50;;;;;;5016585;28;20741;-68
2021/10/21 06:28:07;;;;;;;1.63;0.80;;;16.70;73.20;;;;;;5013587;28;20518;-68
2021/10/21 06:30:34;;;;;;;2.35;0.70;;;16.80;73.20;;;;;;5023810;28;20049;-67
2021/10/21 06:33:01;;;;;;;2.35;0.70;;;16.80;73.20;;;;;;5015910;28;20041;-67
2021/10/21 06:35:26;;;;;;;3.00;1.20;;;16.70;73.20;;;;;;5021144;28;20069;-67
2021/10/21 06:37:52;;;;;;;1.33;0.98;;;16.70;71.90;;;;;;5008536;28;20076;-67
2021/10/21 06:40:18;;;;;;;2.72;0.80;;;16.60;72.80;;;;;;5017766;28;20053;-67
2021/10/21 06:42:44;;;;;;;0.88;0.60;;;16.60;71.20;;;;;;5019556;28;20049;-67
2021/10/21 06:45:13;;;;;;;1.33;0.70;;;16.60;69.90;;;;;;5011546;28;20075;-67
2021/10/21 06:47:42;;;;;;;4.50;0.73;;;16.60;71.20;;;;;;5011303;28;20043;-67
2021/10/21 06:50:10;;;;;;;1.63;0.80;;;16.60;70.80;;;;;;5013201;28;20036;-67
2021/10/21 06:52:36;;;;;;;0.95;0.60;;;16.50;69.60;;;;;;5010658;28;20037;-68
2021/10/21 06:55:03;;;;;;;1.73;0.55;;;16.50;68.70;;;;;;5013235;28;20035;-67
2021/10/21 06:57:28;;;;;;;8.63;1.00;;;16.30;68.10;;;;;;4995901;28;20883;-67
2021/10/21 06:59:54;;;;;;;5.63;0.77;;;16.20;67.30;;;;;;5023249;28;20068;-68
2021/10/21 07:02:20;;;;;;;3.15;0.80;;;16.20;66.10;;;;;;5015119;28;20039;-69
2021/10/21 07:04:46;;;;;;;6.10;0.85;;;16.00;65.50;;;;;;5016588;28;20129;-69
2021/10/21 07:07:11;;;;;;;6.35;1.23;;;16.00;66.40;;;;;;5024206;28;20033;-70
2021/10/21 07:09:37;;;;;;;5.10;1.02;;;16.00;67.10;;;;;;5013077;28;20041;-69
2021/10/21 07:12:03;;;;;;;4.18;0.60;;;16.00;66.10;;;;;;5010310;28;20045;-71
2021/10/21 07:14:29;;;;;;;2.35;0.65;;;15.90;65.70;;;;;;5014943;28;20022;-70
2021/10/21 07:16:54;;;;;;;2.80;0.55;;;15.80;65.60;;;;;;5014179;28;20029;-71
2021/10/21 07:19:20;;;;;;;1.67;0.63;;;15.70;65.60;;;;;;5012552;28;20091;-69
2021/10/21 07:21:46;;;;;;;6.82;0.80;;;15.70;65.40;;;;;;5016769;28;20054;-69
2021/10/21 07:24:11;;;;;;;5.60;0.90;;;15.70;66.00;;;;;;5017030;28;20021;-70
2021/10/21 07:26:37;;;;;;;5.35;1.73;;;15.70;64.80;;;;;;5018912;28;20677;-69
2021/10/21 07:29:03;;;;;;;6.47;0.73;;;15.70;65.10;;;;;;5012107;28;20037;-69
2021/10/21 07:31:29;;;;;;;6.20;1.27;;;15.70;65.70;;;;;;5011756;28;20029;-69
2021/10/21 07:33:55;;;;;;;5.53;1.02;;;15.70;65.70;;;;;;5020300;28;20021;-68
2021/10/21 07:36:22;;;;;;;7.93;0.82;;;15.70;65.80;;;;;;5012701;28;20022;-68
2021/10/21 07:38:49;;;;;;;5.03;0.73;;;15.70;65.60;;;;;;5017060;28;20033;-75
2021/10/21 07:41:15;;;;;;;1.88;0.70;;;15.80;65.60;;;;;;5014260;28;20493;-70
2021/10/21 07:43:40;;;;;;;2.45;0.60;;;15.90;65.60;;;;;;5014089;28;20044;-70
2021/10/21 07:46:06;;;;;;;3.05;0.70;;;16.00;65.40;;;;;;5028964;28;20059;-70
2021/10/21 07:48:32;;;;;;;10.15;0.95;;;16.10;64.60;;;;;;5020444;28;20479;-68
2021/10/21 07:50:58;;;;;;;8.32;0.60;;;16.00;63.90;;;;;;5025759;28;20087;-72
2021/10/21 07:53:25;;;;;;;5.97;1.00;;;16.00;63.80;;;;;;5022058;28;20135;-71
2021/10/21 07:55:51;;;;;;;8.45;0.80;;;16.00;63.70;;;;;;5014392;28;20256;-70
2021/10/21 07:58:17;;;;;;;4.53;0.75;;;16.00;63.70;;;;;;5015924;28;20490;-69
2021/10/21 08:00:44;;;;;;;2.40;0.60;;;16.00;63.80;;;;;;5015120;28;20026;-70
2021/10/21 08:03:09;;;;;;;5.88;0.75;;;16.10;64.00;;;;;;5023663;28;20120;-68
2021/10/21 08:05:35;;;;;;;2.65;0.43;;;16.10;64.10;;;;;;5019317;28;20116;-69
2021/10/21 08:08:04;;;;;;;1.30;0.50;;;16.10;63.40;;;;;;5021333;28;20046;-70
2021/10/21 08:10:31;;;;;;;13.98;1.33;;;16.20;63.30;;;;;;5012951;28;20033;-70
2021/10/21 08:12:57;;;;;;;6.80;0.70;;;16.40;61.90;;;;;;5015516;28;20486;-70
2021/10/21 08:15:23;;;;;;;5.88;0.40;;;16.30;61.70;;;;;;5015842;28;20038;-69
2021/10/21 08:17:50;;;;;;;3.25;0.50;;;16.30;62.00;;;;;;5016917;28;20033;-70
2021/10/21 08:20:16;;;;;;;3.83;0.60;;;16.30;61.80;;;;;;5015278;28;20029;-70
2021/10/21 08:22:43;;;;;;;6.70;0.88;;;16.20;61.70;;;;;;5013639;28;20033;-70
2021/10/21 08:25:11;;;;;;;9.48;0.90;;;16.20;62.90;;;;;;5020700;28;20398;-71
2021/10/21 08:27:38;;;;;;;6.70;0.80;;;16.30;62.50;;;;;;5014182;28;20490;-71
2021/10/21 08:30:05;;;;;;;10.68;0.82;;;16.40;62.00;;;;;;5015619;28;20033;-71
2021/10/21 08:32:31;;;;;;;6.78;0.75;;;16.50;61.20;;;;;;5013472;28;20059;-69
2021/10/21 08:34:57;;;;;;;7.75;0.93;;;16.50;61.40;;;;;;5013598;28;20047;-70
2021/10/21 08:37:23;;;;;;;14.50;1.27;;;16.60;61.80;;;;;;5017796;28;20041;-70
2021/10/21 08:39:49;;;;;;;11.07;0.55;;;16.50;61.80;;;;;;5014492;28;20045;-70
2021/10/21 08:42:17;;;;;;;5.53;1.05;;;16.40;61.10;;;;;;5018620;28;20040;-70
2021/10/21 08:44:43;;;;;;;2.88;0.43;;;16.30;62.10;;;;;;5011812;28;20158;-70
2021/10/21 08:47:09;;;;;;;3.22;0.57;;;16.30;61.80;;;;;;5012304;28;20444;-71
2021/10/21 08:49:40;;;;;;;5.20;0.80;;;16.20;62.10;;;;;;5013470;28;20041;-70
2021/10/21 08:52:06;;;;;;;5.65;0.50;;;16.20;62.80;;;;;;5014637;28;20048;-71
2021/10/21 08:54:33;;;;;;;7.32;0.82;;;16.20;62.00;;;;;;5014943;28;20037;-70
2021/10/21 08:56:59;;;;;;;9.82;1.55;;;16.20;62.90;;;;;;5011468;28;20026;-70
2021/10/21 08:59:25;;;;;;;2.90;0.60;;;16.20;64.20;;;;;;5012300;28;20152;-70
2021/10/21 09:02:05;;;;;;;8.45;0.70;;;16.30;63.40;;;;;;5014516;28;20033;-70
2021/10/21 09:09:45;;;;;;;8.35;0.90;;;16.00;63.70;;;;;;5015197;28;20401;-69
2021/10/21 09:12:15;;;;;;;2.72;0.47;;;15.90;64.10;;;;;;5013891;28;20127;-71
2021/10/21 09:14:49;;;;;;;11.27;0.93;;;15.90;64.30;;;;;;5009025;28;20036;-70
2021/10/21 09:17:17;;;;;;;5.63;0.70;;;16.00;63.80;;;;;;5009250;28;20029;-71
2021/10/21 09:19:46;;;;;;;9.63;0.80;;;16.20;63.00;;;;;;5018273;28;21159;-70
2021/10/21 09:22:29;;;;;;;1.60;0.38;;;16.20;62.30;;;;;;5013989;28;20070;-71
2021/10/21 09:25:04;;;;;;;9.32;0.63;;;16.00;63.00;;;;;;5011418;28;20048;-69
2021/10/21 09:27:35;;;;;;;2.63;0.50;;;16.00;63.50;;;;;;5010105;28;20120;-76
2021/10/21 09:30:05;;;;;;;9.48;1.08;;;16.00;63.30;;;;;;5015548;28;20034;-70
2021/10/21 09:32:32;;;;;;;4.88;0.50;;;16.00;62.90;;;;;;5012597;28;20056;-73
2021/10/21 09:35:03;;;;;;;4.53;0.85;;;16.00;63.00;;;;;;5021092;28;20732;-70
2021/10/21 09:37:43;;;;;;;6.90;0.68;;;15.90;64.00;;;;;;5021345;28;20663;-71
2021/10/21 09:40:22;;;;;;;3.58;0.98;;;15.80;64.70;;;;;;5013802;28;20057;-71
2021/10/21 09:42:55;;;;;;;5.97;0.70;;;15.80;64.50;;;;;;5013308;28;20040;-72
2021/10/21 09:45:24;;;;;;;8.18;1.85;;;16.00;64.70;;;;;;5020639;28;20033;-72
2021/10/21 09:47:57;;;;;;;6.93;1.45;;;16.10;63.90;;;;;;5022397;28;20486;-73
2021/10/21 09:50:38;;;;;;;14.52;1.17;;;16.20;63.70;;;;;;5016951;28;20096;-74
2021/10/21 09:53:20;;;;;;;11.10;0.50;;;16.20;63.50;;;;;;5016227;28;20043;-73
2021/10/21 09:55:50;;;;;;;5.57;0.35;;;16.20;62.20;;;;;;5011848;28;20045;-72
2021/10/21 09:58:20;;;;;;;3.35;0.50;;;16.10;61.60;;;;;;5012029;28;20047;-71
2021/10/21 10:00:46;;;;;;;5.10;0.70;;;16.00;62.80;;;;;;5011690;28;20136;-71
2021/10/21 10:03:29;;;;;;;4.38;1.00;;;16.10;63.30;;;;;;5020323;28;20119;-71
2021/10/21 10:05:55;;;;;;;4.45;0.80;;;16.20;63.80;;;;;;5009475;28;20489;-71
2021/10/21 10:08:23;;;;;;;3.75;0.55;;;16.40;63.80;;;;;;5009817;28;20041;-71
2021/10/21 10:10:51;;;;;;;2.30;0.30;;;16.40;63.90;;;;;;5015183;28;20104;-71
2021/10/21 10:13:18;;;;;;;6.15;0.70;;;16.20;65.10;;;;;;5013985;28;20505;-71
2021/10/21 10:15:45;;;;;;;2.28;0.40;;;16.20;66.20;;;;;;5008062;28;20026;-73
2021/10/21 10:18:32;;;;;;;1.58;0.60;;;16.00;67.90;;;;;;5010282;28;20099;-69
2021/10/21 10:21:04;;;;;;;;;;;15.90;70.00;;;;;;5009636;28;20084;-71
2021/10/21 10:23:32;;;;;;;1.08;0.30;;;15.80;70.60;;;;;;5020487;28;20393;-75
2021/10/21 10:25:58;;;;;;;3.85;0.98;;;15.60;71.30;;;;;;5009537;28;20693;-72
2021/10/21 10:28:24;;;;;;;0.98;0.28;;;15.50;72.20;;;;;;5008527;28;20038;-71
2021/10/21 10:30:52;;;;;;;4.05;0.47;;;15.40;74.00;;;;;;5013342;28;20069;-72
2021/10/21 10:33:38;;;;;;;1.20;0.38;;;15.20;75.90;;;;;;5011560;28;20033;-72
2021/10/21 10:36:22;;;;;;;3.17;0.60;;;15.10;76.60;;;;;;5010000;28;20037;-72
2021/10/21 10:38:49;;;;;;;4.53;0.70;;;15.00;78.40;;;;;;5009656;28;20136;-74
2021/10/21 10:41:53;;;;;;;2.78;0.85;;;14.60;80.30;;;;;;5011802;28;20091;-76
2021/10/21 10:44:34;;;;;;;3.88;0.50;;;14.40;80.70;;;;;;5014749;28;20033;-73
2021/10/21 10:47:08;;;;;;;2.85;0.50;;;14.20;79.70;;;;;;5006984;28;20033;-73
2021/10/21 10:49:40;;;;;;;4.35;0.32;;;14.20;80.80;;;;;;5013788;28;20028;-71
2021/10/21 10:52:11;;;;;;;1.77;0.30;;;14.50;79.20;;;;;;5007876;28;20087;-71
2021/10/21 10:54:39;;;;;;;4.45;0.32;;;14.70;77.80;;;;;;5008113;28;20049;-78
2021/10/21 10:57:12;;;;;;;0.30;0.20;;;15.00;76.30;;;;;;5020499;28;20065;-72
2021/10/21 10:59:39;;;;;;;2.95;0.30;;;15.00;74.00;;;;;;5015107;28;20134;-71
2021/10/21 11:02:26;;;;;;;0.22;0.13;;;15.10;73.80;;;;;;5011204;28;20088;-73
2021/10/21 11:04:52;;;;;;;0.32;0.20;;;15.10;73.00;;;;;;5010538;28;20084;-72
2021/10/21 11:07:25;;;;;;;0.60;0.30;;;15.10;73.20;;;;;;5011938;28;20720;-72
2021/10/21 11:10:13;;;;;;;2.67;0.20;;;14.90;74.10;;;;;;5013156;28;20044;-71
2021/10/21 11:12:39;;;;;;;3.75;0.55;;;14.80;74.70;;;;;;5010092;28;20052;-71
2021/10/21 11:15:28;;;;;;;0.35;0.20;;;14.80;75.40;;;;;;5014831;28;20025;-72
2021/10/21 11:17:54;;;;;;;0.10;0.10;;;14.80;75.60;;;;;;5013261;28;20787;-70
2021/10/21 11:20:40;;;;;;;2.35;0.28;;;14.70;75.60;;;;;;5022370;28;20082;-71
2021/10/21 11:23:26;;;;;;;2.08;0.20;;;14.60;76.00;;;;;;5017885;28;20132;-71
2021/10/21 11:25:56;;;;;;;0.57;0.20;;;14.40;76.00;;;;;;5022152;28;20065;-71
2021/10/21 11:28:27;;;;;;;0.13;0.13;;;14.30;76.40;;;;;;5010648;28;20069;-71
2021/10/21 11:30:53;;;;;;;2.28;0.13;;;14.30;76.00;;;;;;5026097;28;20038;-71
2021/10/21 11:33:19;;;;;;;3.63;0.28;;;14.50;76.10;;;;;;5019337;28;20048;-68
2021/10/21 11:35:45;;;;;;;0.80;0.30;;;14.60;74.00;;;;;;5013643;28;20038;-68
2021/10/21 11:38:12;;;;;;;1.40;0.45;;;14.60;73.10;;;;;;5016614;28;20077;-68
2021/10/21 11:40:43;;;;;;;2.10;0.40;;;14.70;73.80;;;;;;5018863;28;20042;-68
2021/10/21 11:43:23;;;;;;;1.75;0.20;;;14.80;72.20;;;;;;5015456;28;20029;-68
2021/10/21 11:46:00;;;;;;;3.83;0.35;;;14.90;71.00;;;;;;5015528;28;20530;-68
2021/10/21 11:48:28;;;;;;;3.30;0.80;;;14.90;70.50;;;;;;5012188;28;20034;-68
2021/10/21 11:50:55;;;;;;;2.40;0.60;;;14.90;71.40;;;;;;5012388;28;20045;-68
2021/10/21 11:53:22;;;;;;;1.90;0.50;;;14.80;71.10;;;;;;5018728;28;20041;-67
2021/10/21 11:55:50;;;;;;;2.95;1.23;;;15.00;70.80;;;;;;5011328;28;20660;-68
2021/10/21 11:58:36;;;;;;;3.40;1.00;;;15.00;70.80;;;;;;5029576;28;20072;-68
2021/10/21 12:01:04;;;;;;;2.78;0.85;;;15.10;70.50;;;;;;5010016;28;20049;-68
2021/10/21 12:03:44;;;;;;;7.43;0.88;;;15.00;70.60;;;;;;5014817;28;20130;-68
2021/10/21 12:06:14;;;;;;;2.15;1.20;;;14.90;71.10;;;;;;5014599;28;20068;-68
2021/10/21 12:08:58;;;;;;;2.90;0.88;;;15.00;69.80;;;;;;5010526;28;20144;-68
2021/10/21 12:11:24;;;;;;;2.28;1.25;;;15.00;70.10;;;;;;5014062;28;20057;-68
2021/10/21 12:13:50;;;;;;;6.57;1.30;;;14.90;70.90;;;;;;5019739;28;20057;-68
2021/10/21 12:16:18;;;;;;;4.82;2.47;;;14.90;70.80;;;;;;5015565;28;20041;-68
2021/10/21 12:18:44;;;;;;;4.78;1.45;;;14.90;71.80;;;;;;5013761;28;20029;-68
2021/10/21 12:21:09;;;;;;;9.60;1.52;;;14.90;70.40;;;;;;5022894;28;20101;-68
2021/10/21 12:23:46;;;;;;;2.88;1.35;;;14.90;70.50;;;;;;5013474;28;20084;-68
2021/10/21 12:26:21;;;;;;;3.33;0.90;;;15.00;70.70;;;;;;5010265;28;20654;-68
2021/10/21 12:28:48;;;;;;;4.40;0.53;;;15.10;68.90;;;;;;5008126;28;20128;-68
2021/10/21 12:31:22;;;;;;;10.73;1.63;;;15.00;68.80;;;;;;5009002;28;20132;-68
2021/10/21 12:34:02;;;;;;;2.78;0.82;;;15.00;67.90;;;;;;5017258;28;20033;-67
2021/10/21 12:36:32;;;;;;;2.67;0.70;;;15.00;69.50;;;;;;5013291;28;20045;-68
2021/10/21 12:39:03;;;;;;;1.77;0.65;;;14.90;69.20;;;;;;5015589;28;20150;-76
2021/10/21 12:41:49;;;;;;;1.92;0.70;;;14.90;70.70;;;;;;5013027;28;20033;-67
2021/10/21 12:44:20;;;;;;;6.78;1.10;;;14.80;70.10;;;;;;5015544;28;20699;-67
2021/10/21 12:46:46;;;;;;;7.80;1.10;;;14.80;70.30;;;;;;5003038;28;20037;-67
2021/10/21 12:49:14;;;;;;;7.22;1.25;;;14.70;70.40;;;;;;5012626;28;20047;-73
2021/10/21 12:51:42;;;;;;;4.57;2.08;;;14.80;70.10;;;;;;5013652;28;20405;-68
2021/10/21 12:54:23;;;;;;;6.13;1.40;;;14.80;69.60;;;;;;5013666;28;20038;-67
2021/10/21 12:56:59;;;;;;;9.73;2.63;;;14.80;70.00;;;;;;5013482;28;20029;-67